Terminal Aerodrome Forecast
Issued by NWS

Home | Current Version | Previous Version | Graphics & Text | Print | Product List | Glossary Off
Versions: 1 2 3 4 5 6 7 8 9 10 11 12 13 14 15 16 17

000
FTUS41 KCLE 221727
TAFFDY
TAF
KFDY 221727Z 2218/2318 24010KT P6SM VCTS SCT025 OVC035CB
      TEMPO 2218/2220 VRB20G30KT 1 1/2SM -TSRA OVC012CB
     FM222100 31010KT P6SM SCT012 OVC025
     FM230100 36006KT P6SM OVC012
     FM230800 33003KT 5SM BR SCT012
     FM231400 01006KT P6SM SKC=

USA.gov is the U.S. government's official web portal to all federal, state and local government web resources and services.